Time;durP1;ratioP1;P1;durP2;ratioP2;P2;SDS_P1;SDS_P2;PMS_P1;PMS_P2;Temp;Humidity;BMP_temperature;BMP_pressure;BME280_temperature;BME280_humidity;BME280_pressure;Samples;Min_cycle;Max_cycle;Signal;HPM_P1;HPM_P2
2022/12/04 00:00:20;;;;;;;;;33.50;20.75;;;;;6.77;54.03;100705.88;5065356;27;45263;-38
2022/12/04 00:02:45;;;;;;;;;26.50;17.75;;;;;6.71;54.01;100704.19;5072639;28;47667;-38
2022/12/04 00:05:11;;;;;;;;;29.75;22.25;;;;;6.72;53.86;100700.69;5072530;28;72118;-38
2022/12/04 00:07:36;;;;;;;;;27.25;22.25;;;;;6.75;54.11;100697.22;5070985;27;45482;-38
2022/12/04 00:10:03;;;;;;;;;27.25;21.25;;;;;6.74;54.07;100688.53;5073831;28;45435;-39
2022/12/04 00:12:28;;;;;;;;;26.00;22.00;;;;;6.75;54.00;100692.03;5067983;28;46946;-38
2022/12/04 00:14:53;;;;;;;;;24.75;18.75;;;;;6.77;54.11;100696.31;5089925;27;51782;-38
2022/12/04 00:17:19;;;;;;;;;36.00;22.75;;;;;6.80;53.93;100705.84;5067752;27;45406;-38
2022/12/04 00:19:44;;;;;;;;;27.25;20.75;;;;;6.80;53.88;100693.69;5069667;27;45487;-38
2022/12/04 00:22:10;;;;;;;;;24.75;20.00;;;;;6.81;54.10;100689.31;5088295;27;61199;-38
2022/12/04 00:24:35;;;;;;;;;35.50;22.25;;;;;6.83;53.88;100695.38;5070657;28;61277;-38
2022/12/04 00:27:01;;;;;;;;;34.25;22.50;;;;;6.82;54.09;100696.25;5092086;27;45359;-38
2022/12/04 00:29:26;;;;;;;;;31.50;22.50;;;;;6.79;53.97;100691.94;5071106;28;45854;-38
2022/12/04 00:31:52;;;;;;;;;18.00;16.50;;;;;6.80;54.06;100698.88;5070471;27;52131;-38
2022/12/04 00:34:17;;;;;;;;;25.00;21.50;;;;;6.82;54.06;100691.06;5073140;28;45320;-38
2022/12/04 00:36:43;;;;;;;;;27.00;21.50;;;;;6.80;54.09;100700.63;5070696;27;58726;-38
2022/12/04 00:39:08;;;;;;;;;34.50;24.25;;;;;6.80;53.89;100693.69;5086352;27;45460;-39
2022/12/04 00:41:33;;;;;;;;;28.25;20.75;;;;;6.79;53.97;100685.91;5077447;27;71357;-39
2022/12/04 00:44:01;;;;;;;;;23.50;19.50;;;;;6.78;54.03;100691.97;5075602;27;45347;-39
2022/12/04 00:46:26;;;;;;;;;24.75;19.50;;;;;6.77;54.02;100687.66;5069041;27;45237;-39
2022/12/04 00:48:53;;;;;;;;;35.00;20.75;;;;;6.76;53.97;100681.56;5074546;28;45679;-39
2022/12/04 00:51:21;;;;;;;;;23.50;19.75;;;;;6.79;54.06;100685.91;5074091;28;46942;-37
2022/12/04 00:53:47;;;;;;;;;32.00;23.75;;;;;6.79;53.95;100685.91;5076481;28;45830;-37
2022/12/04 00:56:15;;;;;;;;;37.50;22.00;;;;;6.78;53.97;100689.34;5061241;28;45358;-37
2022/12/04 00:58:41;;;;;;;;;27.50;22.25;;;;;6.76;53.77;100678.97;5074333;28;45568;-37
2022/12/04 01:01:12;;;;;;;;;26.50;19.25;;;;;6.76;53.70;100688.53;5075912;27;74562;-36
2022/12/04 01:03:38;;;;;;;;;29.00;21.00;;;;;6.73;54.26;100692.03;5063443;27;45389;-39
2022/12/04 01:06:04;;;;;;;;;24.00;18.50;;;;;6.75;54.04;100692.03;5072080;28;45706;-39
2022/12/04 01:08:30;;;;;;;;;29.50;20.50;;;;;6.76;54.30;100683.31;5077666;27;45446;-39
2022/12/04 01:10:56;;;;;;;;;25.00;20.50;;;;;6.77;54.22;100682.44;5074206;28;45488;-40
2022/12/04 01:13:22;;;;;;;;;30.75;23.75;;;;;6.75;53.95;100682.47;5071432;27;45398;-39
2022/12/04 01:15:48;;;;;;;;;31.75;21.50;;;;;6.77;54.13;100682.44;5088233;27;45269;-39
2022/12/04 01:18:13;;;;;;;;;28.00;21.75;;;;;6.75;54.16;100679.88;5079092;27;45790;-39
2022/12/04 01:20:39;;;;;;;;;33.00;20.75;;;;;6.72;53.89;100671.25;5075946;27;46322;-36
2022/12/04 01:23:05;;;;;;;;;34.50;24.00;;;;;6.73;54.16;100676.44;5072651;27;45236;-38
2022/12/04 01:25:30;;;;;;;;;34.50;23.50;;;;;6.73;54.27;100676.44;5073856;28;45789;-38
2022/12/04 01:27:55;;;;;;;;;23.75;19.25;;;;;6.78;54.23;100678.97;5071641;27;45398;-38
2022/12/04 01:30:21;;;;;;;;;28.25;22.50;;;;;6.77;54.17;100672.91;5068337;28;60872;-39
2022/12/04 01:32:46;;;;;;;;;34.25;25.00;;;;;6.77;54.08;100675.50;5070465;28;52039;-38
2022/12/04 01:35:12;;;;;;;;;30.25;24.00;;;;;6.77;54.09;100672.06;5067826;27;58175;-38
2022/12/04 01:37:37;;;;;;;;;24.75;19.00;;;;;6.75;54.21;100663.41;5066786;28;45413;-38
2022/12/04 01:40:04;;;;;;;;;33.75;26.75;;;;;6.74;54.23;100654.72;5070520;27;46343;-38
2022/12/04 01:42:29;;;;;;;;;35.00;22.50;;;;;6.72;54.25;100653.03;5068016;28;45455;-38
2022/12/04 01:45:27;;;;;;;;;29.75;21.75;;;;;6.76;54.44;100659.91;5073421;27;63096;-38
2022/12/04 01:47:55;;;;;;;;;33.50;24.50;;;;;6.75;54.20;100664.25;5085354;27;45583;-38
2022/12/04 01:50:20;;;;;;;;;28.75;22.75;;;;;6.77;54.42;100667.69;5092826;27;45422;-38
2022/12/04 01:52:46;;;;;;;;;35.50;20.00;;;;;6.75;54.07;100669.47;5074983;27;45394;-38
2022/12/04 01:55:11;;;;;;;;;28.00;22.50;;;;;6.77;54.28;100680.72;5073531;28;45728;-38
2022/12/04 01:57:37;;;;;;;;;35.75;21.00;;;;;6.75;54.37;100671.22;5068984;28;45515;-38
2022/12/04 02:00:07;;;;;;;;;33.00;25.00;;;;;6.74;54.25;100675.53;5068322;27;45766;-38
2022/12/04 02:02:35;;;;;;;;;32.75;24.00;;;;;6.75;54.40;100677.25;5074523;28;45477;-38
2022/12/04 02:05:02;;;;;;;;;30.00;23.25;;;;;6.77;54.31;100674.66;5064019;27;45406;-38
2022/12/04 02:07:28;;;;;;;;;22.50;20.00;;;;;6.75;54.19;100673.81;5076886;27;45481;-38
2022/12/04 02:09:54;;;;;;;;;29.25;22.50;;;;;6.75;54.32;100681.63;5062912;28;66399;-38
2022/12/04 02:12:35;;;;;;;;;23.75;17.75;;;;;6.74;54.32;100670.34;5066428;28;47077;-38
2022/12/04 02:15:11;;;;;;;;;29.75;23.25;;;;;6.72;54.13;100671.25;5072221;28;45530;-39
2022/12/04 02:17:43;;;;;;;;;33.50;23.00;;;;;6.70;54.49;100660.00;5092922;27;45393;-38
2022/12/04 02:20:27;;;;;;;;;32.25;23.25;;;;;6.71;54.39;100673.00;5083144;27;45450;-38
2022/12/04 02:22:53;;;;;;;;;33.75;23.00;;;;;6.73;54.38;100675.53;5071873;27;45437;-38
2022/12/04 02:25:52;;;;;;;;;36.75;26.00;;;;;6.74;54.59;100677.28;5076172;28;45512;-38
2022/12/04 02:28:24;;;;;;;;;29.75;25.00;;;;;6.77;54.49;100678.09;5073135;27;45363;-38
2022/12/04 02:30:54;;;;;;;;;32.50;23.50;;;;;6.79;54.45;100676.34;5070555;28;45467;-38
2022/12/04 02:33:42;;;;;;;;;36.75;28.25;;;;;6.78;54.32;100673.75;5075387;27;45523;-38
2022/12/04 02:36:13;;;;;;;;;31.25;22.00;;;;;6.75;54.43;100677.25;5077992;28;45470;-38
2022/12/04 02:38:43;;;;;;;;;35.50;27.50;;;;;6.77;54.40;100675.50;5080416;27;45485;-38
2022/12/04 02:41:15;;;;;;;;;32.25;23.50;;;;;6.78;54.29;100671.16;5079329;27;46801;-38
2022/12/04 02:43:48;;;;;;;;;27.00;24.50;;;;;6.78;54.33;100676.34;5077061;27;45384;-38
2022/12/04 02:46:20;;;;;;;;;30.25;24.00;;;;;6.78;54.22;100672.03;5089446;27;45763;-38
2022/12/04 02:48:49;;;;;;;;;35.00;24.25;;;;;6.77;54.34;100667.69;5093396;27;45543;-39
2022/12/04 02:51:18;;;;;;;;;33.50;23.75;;;;;6.77;54.78;100664.25;5064453;28;46216;-38
2022/12/04 02:53:56;;;;;;;;;31.00;20.50;;;;;6.77;54.22;100669.44;5060701;28;45871;-38
2022/12/04 02:56:27;;;;;;;;;30.75;22.50;;;;;6.78;54.16;100673.75;5067311;27;45460;-38
2022/12/04 02:59:00;;;;;;;;;39.75;26.50;;;;;6.76;54.16;100670.31;5078733;28;45698;-38
2022/12/04 03:01:30;;;;;;;;;37.00;24.00;;;;;6.76;54.34;100670.31;5083152;27;45500;-38
2022/12/04 03:04:04;;;;;;;;;31.75;22.75;;;;;6.75;54.45;100674.66;5078229;27;45382;-38
2022/12/04 03:06:33;;;;;;;;;33.25;25.00;;;;;6.76;54.42;100668.56;5095109;27;45940;-38
2022/12/04 03:09:05;;;;;;;;;32.00;22.75;;;;;6.78;54.44;100674.63;5053334;28;46031;-38
2022/12/04 03:11:34;;;;;;;;;33.00;27.25;;;;;6.79;54.33;100676.34;5076421;28;45497;-38
2022/12/04 03:14:07;;;;;;;;;38.00;28.25;;;;;6.78;54.48;100666.84;5076724;28;45758;-39
2022/12/04 03:16:40;;;;;;;;;36.50;29.75;;;;;6.77;54.32;100662.50;5075129;28;45478;-38
2022/12/04 03:19:40;;;;;;;;;35.25;24.75;;;;;6.74;54.15;100657.31;5075872;28;45432;-39
2022/12/04 03:22:09;;;;;;;;;33.50;24.50;;;;;6.75;54.35;100663.41;5050456;28;45592;-38
2022/12/04 03:24:40;;;;;;;;;32.25;23.00;;;;;6.75;54.46;100659.06;5075405;27;45508;-38
2022/12/04 03:27:08;;;;;;;;;30.75;22.75;;;;;6.77;54.53;100652.09;5077544;27;45430;-38
2022/12/04 03:29:44;;;;;;;;;41.25;27.75;;;;;6.78;54.47;100651.22;5072818;28;45725;-38
2022/12/04 03:32:13;;;;;;;;;35.00;27.50;;;;;6.80;54.48;100653.81;5072870;27;45657;-38
2022/12/04 03:34:50;;;;;;;;;36.75;25.50;;;;;6.77;54.24;100646.91;5072597;27;45873;-38
2022/12/04 03:37:20;;;;;;;;;38.50;25.50;;;;;6.75;54.33;100647.81;5078139;28;45367;-38
2022/12/04 03:39:50;;;;;;;;;38.00;28.25;;;;;6.71;54.40;100646.97;5063250;27;45497;-38
2022/12/04 03:42:20;;;;;;;;;36.75;27.00;;;;;6.73;54.61;100646.94;5065911;28;45670;-38
2022/12/04 03:44:55;;;;;;;;;34.25;24.50;;;;;6.72;54.38;100647.84;5067729;28;46262;-38
2022/12/04 03:47:30;;;;;;;;;22.75;20.75;;;;;6.76;54.33;100644.31;5064421;28;45580;-38
2022/12/04 03:49:59;;;;;;;;;38.50;28.25;;;;;6.78;54.29;100637.34;5070409;28;45471;-38
2022/12/04 03:52:42;;;;;;;;;35.00;30.50;;;;;6.80;54.29;100633.00;5067630;28;45351;-38
2022/12/04 03:55:13;;;;;;;;;36.50;27.75;;;;;6.80;54.37;100636.47;5072885;28;45658;-38
2022/12/04 03:57:42;;;;;;;;;36.25;29.25;;;;;6.75;54.43;100622.66;5094292;27;45708;-38
2022/12/04 04:00:12;;;;;;;;;31.00;27.75;;;;;6.81;54.49;100619.94;5076629;28;45542;-38
2022/12/04 04:02:48;;;;;;;;;35.75;25.50;;;;;6.83;54.22;100615.63;5076135;27;46087;-38
2022/12/04 04:05:14;;;;;;;;;31.00;23.75;;;;;6.81;54.09;100609.56;5075291;28;45508;-38
2022/12/04 04:07:46;;;;;;;;;36.00;22.50;;;;;6.82;54.17;100600.03;5070741;28;62609;-38
2022/12/04 04:10:16;;;;;;;;;41.75;29.25;;;;;6.79;54.40;100600.91;5079205;28;45355;-38
2022/12/04 04:24:13;;;;;;;;;33.50;23.50;;;;;6.74;54.29;100578.47;5090729;27;45547;-38
2022/12/04 04:24:14;;;;;;;;;32.75;24.50;;;;;6.74;54.21;100561.09;5072670;28;45413;-38
2022/12/04 04:26:45;;;;;;;;;30.75;25.00;;;;;6.70;54.49;100569.00;5065822;28;45968;-38
2022/12/04 04:29:10;;;;;;;;;29.50;20.00;;;;;6.69;54.65;100556.84;5079017;27;45378;-39
2022/12/04 04:31:51;;;;;;;;;30.75;23.50;;;;;6.70;54.63;100563.78;5072215;27;45566;-38
2022/12/04 04:34:29;;;;;;;;;34.25;28.50;;;;;6.71;54.49;100566.38;5074559;28;46715;-38
2022/12/04 04:37:10;;;;;;;;;30.75;25.00;;;;;6.73;54.58;100568.91;5076961;28;45538;-38
2022/12/04 04:39:41;;;;;;;;;29.50;24.25;;;;;6.77;54.39;100575.81;5063673;28;45829;-38
2022/12/04 04:42:16;;;;;;;;;32.25;27.25;;;;;6.79;54.48;100592.25;5077885;28;45417;-38
2022/12/04 04:45:07;;;;;;;;;33.50;25.50;;;;;6.82;54.39;100584.44;5075343;28;46253;-39
2022/12/04 04:48:04;;;;;;;;;35.75;26.50;;;;;6.82;54.42;100577.47;5073499;27;45415;-38
2022/12/04 04:50:31;;;;;;;;;36.25;25.00;;;;;6.79;54.15;100574.06;5069675;28;45297;-38
2022/12/04 04:53:01;;;;;;;;;36.25;26.50;;;;;6.77;54.12;100574.06;5070093;28;45668;-38
2022/12/04 04:55:27;;;;;;;;;32.75;24.50;;;;;6.75;54.41;100573.25;5069456;28;46281;-39
2022/12/04 04:57:52;;;;;;;;;36.00;25.25;;;;;6.77;54.43;100575.81;5070745;27;62876;-38
2022/12/04 05:00:21;;;;;;;;;40.00;27.50;;;;;6.80;54.29;100584.44;5074265;27;56891;-39
2022/12/04 05:02:48;;;;;;;;;39.75;27.50;;;;;6.80;54.44;100589.63;5071941;28;45458;-38
2022/12/04 05:05:14;;;;;;;;;40.00;26.75;;;;;6.84;54.38;100585.25;5071809;27;47085;-39
2022/12/04 05:07:40;;;;;;;;;37.75;27.75;;;;;6.84;54.22;100586.09;5068777;27;45339;-39
2022/12/04 05:10:07;;;;;;;;;33.00;24.25;;;;;6.86;54.40;100575.69;5083817;27;45323;-38
2022/12/04 05:12:32;;;;;;;;;34.75;27.50;;;;;6.89;54.12;100580.84;5068247;27;45239;-38
2022/12/04 05:14:57;;;;;;;;;37.50;28.50;;;;;6.90;54.29;100585.16;5071966;27;46285;-38
2022/12/04 05:17:23;;;;;;;;;41.50;28.00;;;;;6.93;53.95;100592.06;5071349;27;66671;-38
2022/12/04 05:19:54;;;;;;;;;35.00;29.00;;;;;6.94;54.09;100591.16;5074628;27;45311;-38
2022/12/04 05:22:32;;;;;;;;;30.00;24.75;;;;;6.93;54.15;100589.47;5076794;28;45451;-38
2022/12/04 05:24:58;;;;;;;;;37.25;30.50;;;;;6.91;54.13;100583.44;5072638;28;46178;-39
2022/12/04 05:27:26;;;;;;;;;30.00;23.25;;;;;6.91;54.28;100580.84;5071350;28;45895;-38
2022/12/04 05:29:52;;;;;;;;;39.25;30.00;;;;;6.89;54.16;100583.44;5072390;27;45255;-38
2022/12/04 05:32:18;;;;;;;;;30.25;24.75;;;;;6.86;54.29;100586.09;5063914;27;45401;-38
2022/12/04 05:34:47;;;;;;;;;35.75;27.25;;;;;6.88;54.04;100602.53;5075742;27;46482;-38
2022/12/04 05:37:12;;;;;;;;;33.75;26.00;;;;;6.85;54.14;100594.75;5068297;27;45509;-38
2022/12/04 05:39:37;;;;;;;;;40.25;29.75;;;;;6.86;54.20;100590.44;5076810;27;45192;-38
2022/12/04 05:42:03;;;;;;;;;37.75;26.50;;;;;6.86;54.24;100603.44;5071616;28;45583;-38
2022/12/04 05:44:28;;;;;;;;;37.25;27.50;;;;;6.86;54.37;100614.69;5068424;27;45717;-38
2022/12/04 05:46:53;;;;;;;;;38.25;26.25;;;;;6.87;54.16;100624.25;5077936;27;45500;-38
2022/12/04 05:49:19;;;;;;;;;40.25;27.00;;;;;6.91;54.30;100625.06;5077038;27;55418;-38
2022/12/04 05:51:44;;;;;;;;;36.75;28.25;;;;;6.91;54.15;100627.66;5070209;27;45629;-38
2022/12/04 05:54:09;;;;;;;;;30.00;23.75;;;;;6.89;54.33;100624.19;5070442;28;54233;-38
2022/12/04 05:56:35;;;;;;;;;35.00;27.50;;;;;6.89;54.25;100630.28;5077227;27;49701;-38
2022/12/04 05:59:00;;;;;;;;;31.25;24.75;;;;;6.90;54.16;100636.34;5071341;28;45500;-39
2022/12/04 06:01:26;;;;;;;;;30.00;22.50;;;;;6.93;54.16;100633.69;5067343;28;66848;-38
2022/12/04 06:03:51;;;;;;;;;37.00;24.00;;;;;6.93;54.09;100644.09;5065587;28;48178;-38
2022/12/04 06:06:21;;;;;;;;;35.75;25.75;;;;;6.90;54.28;100644.13;5071525;27;53530;-38
2022/12/04 06:08:48;;;;;;;;;38.75;27.25;;;;;6.91;54.22;100648.47;5061555;27;45355;-39
2022/12/04 06:11:16;;;;;;;;;34.25;28.75;;;;;6.90;54.12;100647.59;5072560;28;45378;-39
2022/12/04 06:13:43;;;;;;;;;36.25;24.00;;;;;6.91;54.27;100644.13;5072968;27;45462;-39
2022/12/04 06:16:15;;;;;;;;;40.75;31.50;;;;;6.93;54.36;100638.91;5077159;28;45624;-39
2022/12/04 06:18:41;;;;;;;;;39.00;32.00;;;;;6.96;54.36;100631.06;5060908;28;45510;-38
2022/12/04 06:21:07;;;;;;;;;39.25;29.25;;;;;6.98;54.44;100624.94;5076805;28;45268;-39
2022/12/04 06:23:32;;;;;;;;;38.75;29.00;;;;;7.01;54.21;100634.44;5064581;27;46368;-36
2022/12/04 06:26:02;;;;;;;;;32.25;24.75;;;;;7.01;54.31;100631.81;5070356;27;61142;-37
2022/12/04 06:28:27;;;;;;;;;38.25;27.50;;;;;7.02;54.35;100623.16;5073400;27;45273;-38
2022/12/04 06:30:52;;;;;;;;;9.00;3.00;;;;;7.02;54.24;100616.19;5069683;27;64567;-38
2022/12/04 06:33:18;;;;;;;;;34.25;26.50;;;;;7.03;54.20;100617.09;5069542;27;75370;-37
2022/12/04 06:35:43;;;;;;;;;32.00;24.75;;;;;7.05;54.08;100628.31;5071151;27;56619;-38
2022/12/04 06:38:08;;;;;;;;;36.25;23.50;;;;;7.04;54.22;100637.84;5071132;28;57430;-38
2022/12/04 06:40:34;;;;;;;;;63.75;47.00;;;;;7.03;54.19;100638.75;5074551;27;59960;-38
2022/12/04 06:42:59;;;;;;;;;37.50;29.00;;;;;7.02;54.09;100630.97;5075993;27;57081;-38
2022/12/04 06:45:24;;;;;;;;;34.00;29.75;;;;;7.01;54.23;100635.31;5090188;27;47967;-38
2022/12/04 06:47:50;;;;;;;;;34.75;28.50;;;;;7.04;54.33;100644.81;5069715;27;45969;-37
2022/12/04 06:50:15;;;;;;;;;38.50;25.75;;;;;7.07;54.14;100641.31;5073358;28;69453;-37
2022/12/04 06:52:40;;;;;;;;;32.75;28.25;;;;;7.06;54.06;100650.84;5068183;27;60053;-37
2022/12/04 06:55:06;;;;;;;;;35.75;28.50;;;;;7.06;54.24;100655.19;5076758;27;45435;-38
2022/12/04 06:57:32;;;;;;;;;35.50;25.25;;;;;7.07;54.18;100651.72;5074649;27;45652;-37
2022/12/04 06:59:57;;;;;;;;;33.50;25.50;;;;;7.07;54.30;100649.97;5066111;27;64395;-37
2022/12/04 07:02:23;;;;;;;;;31.75;24.25;;;;;7.09;54.01;100653.41;5089500;27;45691;-37
2022/12/04 07:04:48;;;;;;;;;29.50;23.75;;;;;7.09;54.23;100656.00;5078544;27;45537;-37
2022/12/04 07:07:13;;;;;;;;;41.75;28.75;;;;;7.10;53.96;100643.84;5057558;28;67626;-37
2022/12/04 07:09:38;;;;;;;;;42.25;29.50;;;;;7.12;54.24;100655.97;5065221;28;70150;-38
2022/12/04 07:12:04;;;;;;;;;36.00;26.25;;;;;7.15;54.20;100661.16;5064256;27;46017;-38
2022/12/04 07:14:30;;;;;;;;;38.25;27.75;;;;;7.19;54.17;100662.81;5076329;27;45300;-37
2022/12/04 07:16:55;;;;;;;;;34.00;24.00;;;;;7.21;54.21;100666.25;5067874;27;45817;-37
2022/12/04 07:19:20;;;;;;;;;33.00;24.50;;;;;7.22;54.07;100660.19;5069014;27;69770;-37
2022/12/04 07:21:46;;;;;;;;;30.50;22.25;;;;;7.22;54.07;100654.09;5065862;28;45446;-37
2022/12/04 07:24:15;;;;;;;;;33.00;23.75;;;;;7.21;54.09;100652.38;5091658;27;55276;-38
2022/12/04 07:26:41;;;;;;;;;36.50;30.25;;;;;7.19;54.30;100651.56;5081130;27;45367;-37
2022/12/04 07:29:06;;;;;;;;;36.00;26.25;;;;;7.21;54.24;100648.03;5072580;27;45546;-37
2022/12/04 07:31:32;;;;;;;;;34.00;30.50;;;;;7.24;54.26;100644.50;5075995;28;71233;-37
2022/12/04 07:33:57;;;;;;;;;37.50;28.25;;;;;7.27;54.22;100665.28;5071911;27;70773;-37
2022/12/04 07:36:24;;;;;;;;;39.50;27.00;;;;;7.29;54.02;100654.88;5075695;28;45397;-38
2022/12/04 07:38:50;;;;;;;;;32.75;25.50;;;;;7.29;54.10;100658.31;5074395;27;45245;-39
2022/12/04 07:41:16;;;;;;;;;32.75;24.75;;;;;7.31;54.13;100655.69;5085435;27;46203;-38
2022/12/04 07:43:41;;;;;;;;;38.00;28.25;;;;;7.31;54.05;100653.97;5073778;28;45428;-38
2022/12/04 07:46:13;;;;;;;;;42.50;26.75;;;;;7.32;54.46;100649.63;5080750;27;47003;-38
2022/12/04 07:48:39;;;;;;;;;31.00;26.50;;;;;7.32;54.12;100655.69;5070820;28;45516;-38
2022/12/04 07:51:10;;;;;;;;;39.50;31.00;;;;;7.31;54.15;100664.38;5070989;28;46116;-39
2022/12/04 07:53:35;;;;;;;;;35.25;29.00;;;;;7.30;53.98;100661.81;5076683;27;45724;-38
2022/12/04 07:56:02;;;;;;;;;39.00;30.50;;;;;7.28;54.04;100650.53;5067979;28;45456;-39
2022/12/04 07:58:28;;;;;;;;;39.75;25.75;;;;;7.27;54.01;100641.88;5095775;27;45820;-38
2022/12/04 08:00:53;;;;;;;;;38.25;29.00;;;;;7.25;54.09;100638.44;5070859;27;61915;-38
2022/12/04 08:03:19;;;;;;;;;32.50;24.50;;;;;7.27;54.02;100643.63;5074925;28;45249;-37
2022/12/04 08:05:44;;;;;;;;;40.00;29.75;;;;;7.28;53.83;100642.72;5071184;28;48771;-38
2022/12/04 08:08:09;;;;;;;;;36.00;27.50;;;;;7.28;54.12;100635.78;5069714;28;45617;-38
2022/12/04 08:10:35;;;;;;;;;44.25;29.25;;;;;7.29;54.25;100642.69;5067009;28;49302;-38
2022/12/04 08:13:00;;;;;;;;;38.50;33.00;;;;;7.28;54.13;100641.00;5070950;28;61072;-39
2022/12/04 08:15:25;;;;;;;;;32.75;28.50;;;;;7.29;54.00;100652.25;5075125;27;55226;-38
2022/12/04 08:17:51;;;;;;;;;38.00;29.00;;;;;7.25;53.94;100633.22;5076164;27;45428;-38
2022/12/04 08:20:16;;;;;;;;;45.50;27.75;;;;;7.21;54.18;100629.81;5052276;28;45888;-38
2022/12/04 08:22:41;;;;;;;;;40.50;30.75;;;;;7.20;54.24;100628.06;5074932;27;45383;-37
2022/12/04 08:25:07;;;;;;;;;31.50;28.00;;;;;7.21;54.20;100632.41;5077131;27;64960;-38
2022/12/04 08:27:33;;;;;;;;;28.25;25.00;;;;;7.19;54.32;100643.75;5093099;27;45309;-38
2022/12/04 08:29:58;;;;;;;;;34.50;27.25;;;;;7.19;54.14;100630.72;5069008;27;65288;-37
2022/12/04 08:32:23;;;;;;;;;37.75;26.75;;;;;7.20;54.23;100641.09;5081191;27;57657;-38
2022/12/04 08:34:50;;;;;;;;;34.25;27.25;;;;;7.22;54.36;100644.56;5073451;27;45559;-38
2022/12/04 08:37:15;;;;;;;;;48.25;31.75;;;;;7.27;54.42;100643.63;5071148;28;45455;-38
2022/12/04 08:39:41;;;;;;;;;37.25;29.00;;;;;7.28;54.14;100643.59;5068110;27;46293;-38
2022/12/04 08:42:06;;;;;;;;;28.00;27.00;;;;;7.29;54.41;100652.25;5071133;27;45260;-38
2022/12/04 08:44:31;;;;;;;;;32.50;26.50;;;;;7.30;54.15;100651.38;5078275;27;59929;-38
2022/12/04 08:46:57;;;;;;;;;40.00;27.00;;;;;7.31;54.15;100659.19;5078228;27;45514;-38
2022/12/04 08:49:22;;;;;;;;;36.75;28.00;;;;;7.34;54.34;100658.25;5065053;27;45543;-39
2022/12/04 08:51:47;;;;;;;;;36.00;28.00;;;;;7.36;54.07;100659.94;5071759;28;45264;-38
2022/12/04 08:54:13;;;;;;;;;37.75;29.00;;;;;7.37;54.15;100658.22;5076857;27;45435;-38
2022/12/04 08:56:39;;;;;;;;;71.50;51.50;;;;;7.38;54.01;100672.94;5082992;27;45523;-41
2022/12/04 08:59:04;;;;;;;;;41.50;31.00;;;;;7.39;54.24;100675.53;5074156;27;45769;-38
2022/12/04 09:01:30;;;;;;;;;42.50;31.75;;;;;7.41;53.87;100675.50;5068407;28;45445;-38
2022/12/04 09:03:56;;;;;;;;;40.75;29.50;;;;;7.39;53.90;100672.94;5078087;27;45811;-39
2022/12/04 09:06:22;;;;;;;;;33.50;26.75;;;;;7.40;54.17;100673.78;5075007;27;45426;-40
2022/12/04 09:08:51;;;;;;;;;43.25;33.75;;;;;7.40;53.72;100666.84;5091472;27;45356;-38
2022/12/04 09:11:19;;;;;;;;;40.75;32.25;;;;;7.41;53.95;100667.69;5045056;28;45311;-39
2022/12/04 09:13:46;;;;;;;;;28.50;27.50;;;;;7.43;53.83;100662.47;5076804;27;45477;-39
2022/12/04 09:16:14;;;;;;;;;30.00;24.50;;;;;7.41;53.92;100660.75;5065021;28;45411;-39
2022/12/04 09:18:40;;;;;;;;;39.75;30.25;;;;;7.44;53.87;100662.44;5078116;28;46632;-39
2022/12/04 09:21:09;;;;;;;;;43.50;35.25;;;;;7.48;53.88;100669.31;5069436;27;45773;-39
2022/12/04 09:23:35;;;;;;;;;39.75;30.25;;;;;7.50;53.85;100661.50;5079849;27;45300;-39
2022/12/04 09:26:01;;;;;;;;;41.25;34.00;;;;;7.50;53.54;100654.53;5072594;27;45471;-40
2022/12/04 09:28:27;;;;;;;;;41.75;32.00;;;;;7.54;53.84;100665.75;5079063;27;46198;-38
2022/12/04 09:31:03;;;;;;;;;41.00;34.00;;;;;7.55;53.63;100660.53;5091176;27;45260;-37
2022/12/04 09:33:29;;;;;;;;;41.50;30.25;;;;;7.56;53.65;100654.44;5092197;27;45317;-39
2022/12/04 09:35:55;;;;;;;;;32.75;28.25;;;;;7.56;53.96;100657.06;5094449;27;45601;-39
2022/12/04 09:38:20;;;;;;;;;38.25;31.00;;;;;7.57;53.81;100656.16;5075344;27;45411;-39
2022/12/04 09:40:53;;;;;;;;;45.00;32.00;;;;;7.57;53.64;100648.34;5079787;27;45325;-38
2022/12/04 09:43:31;;;;;;;;;38.25;26.50;;;;;7.58;53.75;100660.50;5092662;27;45757;-38
2022/12/04 09:46:01;;;;;;;;;43.00;36.00;;;;;7.56;53.65;100662.25;5088640;27;45551;-38
2022/12/04 09:48:32;;;;;;;;;38.75;25.50;;;;;7.56;53.90;100670.06;5078405;27;47212;-38
2022/12/04 09:50:59;;;;;;;;;40.25;29.00;;;;;7.57;53.77;100663.13;5088696;27;45478;-38
2022/12/04 09:53:28;;;;;;;;;37.00;27.75;;;;;7.55;53.91;100668.34;5058894;28;45442;-38
2022/12/04 09:56:03;;;;;;;;;34.00;25.50;;;;;7.55;53.79;100668.34;5074654;27;45517;-37
2022/12/04 09:58:41;;;;;;;;;24.50;14.25;;;;;7.56;53.78;100669.19;5094024;27;47018;-38
2022/12/04 10:01:18;;;;;;;;;44.25;32.50;;;;;7.60;53.58;100671.75;5091940;27;45672;-39
2022/12/04 10:03:43;;;;;;;;;37.25;31.50;;;;;7.64;53.57;100664.75;5084482;27;45472;-38
2022/12/04 10:06:18;;;;;;;;;40.50;30.25;;;;;7.64;53.68;100658.69;5066316;28;48733;-38
2022/12/04 10:08:45;;;;;;;;;46.75;33.75;;;;;7.66;53.84;100659.50;5070625;28;46392;-38
2022/12/04 10:11:14;;;;;;;;;38.25;34.00;;;;;7.68;53.74;100655.13;5075600;28;45380;-38
2022/12/04 10:14:27;;;;;;;;;48.25;30.25;;;;;7.72;53.69;100656.78;5091026;27;45460;-38
2022/12/04 10:16:58;;;;;;;;;43.25;30.75;;;;;7.74;53.59;100650.69;5044527;28;45475;-38
2022/12/04 10:19:31;;;;;;;;;44.75;28.75;;;;;7.76;53.64;100654.13;5065204;28;45618;-38
2022/12/04 10:22:15;;;;;;;;;46.25;33.75;;;;;7.79;53.56;100645.38;5077174;27;45771;-39
2022/12/04 10:24:48;;;;;;;;;35.75;31.00;;;;;7.81;53.83;100654.06;5062952;27;45547;-39
2022/12/04 10:27:24;;;;;;;;;36.00;31.25;;;;;7.83;53.54;100660.09;5073259;27;45579;-38
2022/12/04 10:29:55;;;;;;;;;46.50;32.75;;;;;7.82;53.34;100657.50;5068539;28;45535;-38
2022/12/04 10:32:27;;;;;;;;;40.50;33.50;;;;;7.79;53.43;100643.66;5068346;28;45524;-38
2022/12/04 10:34:56;;;;;;;;;39.75;34.00;;;;;7.76;53.23;100637.63;5071437;28;45474;-38
2022/12/04 10:37:22;;;;;;;;;40.00;34.50;;;;;7.77;53.57;100641.94;5066503;28;45369;-43
2022/12/04 10:39:47;;;;;;;;;36.75;31.50;;;;;7.75;53.51;100639.38;5076961;28;46965;-39
2022/12/04 10:42:27;;;;;;;;;40.67;28.33;;;;;7.76;53.62;100635.88;5068693;28;45462;-39
2022/12/04 10:44:53;;;;;;;;;35.00;32.00;;;;;7.79;53.61;100637.56;5071252;28;45571;-39
2022/12/04 10:47:20;;;;;;;;;38.75;29.50;;;;;7.81;53.53;100633.22;5053881;28;45296;-38
2022/12/04 10:49:46;;;;;;;;;40.00;34.00;;;;;7.84;53.52;100635.75;5075965;27;45371;-39
2022/12/04 10:52:12;;;;;;;;;39.25;31.75;;;;;7.85;53.57;100632.25;5060061;27;45283;-38
2022/12/04 10:54:59;;;;;;;;;45.50;33.75;;;;;7.86;53.37;100646.13;5064736;28;45169;-38
2022/12/04 10:57:35;;;;;;;;;42.50;33.75;;;;;7.86;53.55;100646.13;5091862;27;45393;-38
2022/12/04 11:00:01;;;;;;;;;49.00;34.50;;;;;7.88;53.46;100646.97;5083933;27;48236;-38
2022/12/04 11:02:29;;;;;;;;;50.00;36.00;;;;;7.87;53.71;100645.28;5075563;27;45900;-38
2022/12/04 11:04:59;;;;;;;;;44.50;32.75;;;;;7.92;53.48;100643.44;5070565;28;45517;-38
2022/12/04 11:07:30;;;;;;;;;45.00;33.25;;;;;7.92;53.43;100638.22;5062677;28;45432;-39
2022/12/04 11:10:17;;;;;;;;;46.00;32.75;;;;;7.93;53.71;100635.59;5071085;27;46818;-38
2022/12/04 11:12:56;;;;;;;;;42.25;32.25;;;;;7.93;53.65;100633.00;5098384;27;45292;-38
2022/12/04 11:15:22;;;;;;;;;53.00;36.00;;;;;7.95;53.55;100633.81;5063439;27;45311;-38
2022/12/04 11:17:47;;;;;;;;;48.00;31.50;;;;;7.98;53.51;100638.09;5071523;27;45569;-38
2022/12/04 11:20:23;;;;;;;;;44.00;35.50;;;;;7.99;53.63;100638.09;5079153;27;48015;-38
2022/12/04 11:22:52;;;;;;;;;53.25;35.75;;;;;8.01;53.50;100634.59;5067666;28;45480;-38
2022/12/04 11:25:19;;;;;;;;;46.50;32.50;;;;;8.00;53.57;100628.50;5078969;27;45387;-37
2022/12/04 11:27:48;;;;;;;;;42.00;34.25;;;;;8.01;53.78;100626.78;5078974;28;47010;-38
2022/12/04 11:30:20;;;;;;;;;42.75;34.00;;;;;8.01;53.66;100629.41;5063908;27;45586;-38
2022/12/04 11:32:45;;;;;;;;;45.00;34.75;;;;;8.02;53.53;100636.31;5075058;28;45440;-37